createdAt,value
2023-03-04T00:00:01.983Z,3.55
2023-03-04T00:02:37.444Z,3.40
2023-03-04T00:05:04.956Z,3.00
2023-03-04T00:07:32.163Z,3.08
2023-03-04T00:09:59.483Z,2.53
2023-03-04T00:12:26.679Z,3.45
2023-03-04T00:14:53.770Z,3.30
2023-03-04T00:17:21.802Z,2.70
2023-03-04T00:19:53.393Z,3.00
2023-03-04T00:22:20.552Z,3.33
2023-03-04T00:24:47.725Z,2.20
2023-03-04T00:27:15.084Z,3.22
2023-03-04T00:29:42.262Z,3.35
2023-03-04T00:32:09.650Z,3.30
2023-03-04T00:34:36.942Z,3.50
2023-03-04T00:37:04.061Z,2.45
2023-03-04T00:39:31.167Z,2.40
2023-03-04T00:41:58.311Z,2.15
2023-03-04T00:44:25.621Z,3.28
2023-03-04T00:46:52.811Z,2.63
2023-03-04T00:49:19.924Z,2.08
2023-03-04T00:51:47.066Z,3.63
2023-03-04T00:54:14.293Z,2.55
2023-03-04T00:56:41.374Z,2.30
2023-03-04T00:59:08.661Z,2.40
2023-03-04T01:01:35.860Z,2.60
2023-03-04T01:04:03.055Z,2.67
2023-03-04T01:06:30.261Z,2.55
2023-03-04T01:08:57.375Z,2.40
2023-03-04T01:11:24.572Z,3.25
2023-03-04T01:13:51.919Z,3.00
2023-03-04T01:16:24.087Z,2.72
2023-03-04T01:18:52.916Z,2.45
2023-03-04T01:21:20.145Z,2.60
2023-03-04T01:23:47.551Z,2.88
2023-03-04T01:26:14.799Z,2.60
2023-03-04T01:28:42.030Z,2.30
2023-03-04T01:31:09.188Z,2.13
2023-03-04T01:33:36.379Z,2.50
2023-03-04T01:36:04.064Z,3.40
2023-03-04T01:38:31.663Z,3.63
2023-03-04T01:41:00.285Z,3.00
2023-03-04T01:43:28.438Z,2.83
2023-03-04T01:45:56.996Z,3.25
2023-03-04T01:48:27.418Z,1.95
2023-03-04T01:50:54.587Z,2.10
2023-03-04T01:53:23.170Z,2.75
2023-03-04T01:55:50.811Z,2.35
2023-03-04T01:58:18.147Z,2.67
2023-03-04T02:00:45.374Z,2.05
2023-03-04T02:03:15.484Z,2.40
2023-03-04T02:05:44.135Z,2.58
2023-03-04T02:08:12.098Z,3.08
2023-03-04T02:10:39.525Z,2.47
2023-03-04T02:13:06.993Z,1.92
2023-03-04T02:15:34.291Z,2.97
2023-03-04T02:18:01.973Z,2.42
2023-03-04T02:20:33.349Z,2.33
2023-03-04T02:23:03.590Z,3.25
2023-03-04T02:25:44.000Z,2.75
2023-03-04T02:28:11.686Z,2.08
2023-03-04T02:30:38.957Z,2.47
2023-03-04T02:33:06.059Z,2.47
2023-03-04T02:35:33.700Z,2.75
2023-03-04T02:38:00.887Z,2.75
2023-03-04T02:40:30.340Z,2.22
2023-03-04T02:42:59.500Z,3.03
2023-03-04T02:45:59.072Z,2.90
2023-03-04T02:48:26.830Z,3.83
2023-03-04T02:50:55.401Z,2.25
2023-03-04T02:53:22.641Z,2.15
2023-03-04T02:55:50.440Z,2.65
2023-03-04T02:58:19.762Z,2.40
2023-03-04T03:00:48.102Z,2.35
2023-03-04T03:03:15.313Z,2.60
2023-03-04T03:05:42.666Z,2.97
2023-03-04T03:08:10.564Z,2.20
2023-03-04T03:10:40.182Z,2.20
2023-03-04T03:13:08.246Z,2.00
2023-03-04T03:15:35.610Z,2.22
2023-03-04T03:18:02.738Z,2.22
2023-03-04T03:20:29.918Z,2.45
2023-03-04T03:22:57.033Z,2.42
2023-03-04T03:25:24.208Z,1.77
2023-03-04T03:27:54.084Z,1.88
2023-03-04T03:30:21.605Z,2.47
2023-03-04T03:32:48.805Z,2.13
2023-03-04T03:35:16.180Z,2.25
2023-03-04T03:37:43.492Z,2.35
2023-03-04T03:40:11.053Z,2.72
2023-03-04T03:42:38.162Z,2.28
2023-03-04T03:45:05.488Z,1.85
2023-03-04T03:47:32.662Z,1.75
2023-03-04T03:49:59.869Z,2.53
2023-03-04T03:52:26.979Z,3.17
2023-03-04T03:54:54.052Z,1.90
2023-03-04T03:57:21.177Z,2.38
2023-03-04T03:59:48.392Z,2.33
2023-03-04T04:02:15.688Z,2.35
2023-03-04T04:04:42.994Z,2.63
2023-03-04T04:07:10.101Z,2.25
2023-03-04T04:09:37.198Z,1.88
2023-03-04T04:12:05.606Z,2.05
2023-03-04T04:14:32.820Z,2.25
2023-03-04T04:17:00.251Z,2.15
2023-03-04T04:19:27.533Z,2.03
2023-03-04T04:21:54.632Z,2.20
2023-03-04T04:24:21.803Z,1.98
2023-03-04T04:26:48.948Z,2.17
2023-03-04T04:29:16.940Z,3.20
2023-03-04T04:31:44.079Z,2.78
2023-03-04T04:34:11.283Z,2.13
2023-03-04T04:36:39.935Z,1.98
2023-03-04T04:39:07.255Z,2.13
2023-03-04T04:41:39.214Z,2.53
2023-03-04T04:44:06.554Z,2.03
2023-03-04T04:46:34.030Z,2.08
2023-03-04T04:49:01.882Z,2.13
2023-03-04T04:51:29.424Z,2.03
2023-03-04T04:53:56.825Z,2.47
2023-03-04T04:56:28.055Z,2.55
2023-03-04T04:58:57.010Z,2.13
2023-03-04T05:01:24.238Z,2.30
2023-03-04T05:03:53.166Z,2.22
2023-03-04T05:06:21.291Z,2.00
2023-03-04T05:08:48.715Z,2.20
2023-03-04T05:11:16.102Z,2.05
2023-03-04T05:13:43.371Z,2.53
2023-03-04T05:16:10.679Z,2.35
2023-03-04T05:18:38.132Z,2.40
2023-03-04T05:21:05.833Z,2.40
2023-03-04T05:23:34.571Z,3.00
2023-03-04T05:26:02.303Z,2.38
2023-03-04T05:28:32.065Z,2.25
2023-03-04T05:31:03.003Z,2.72
2023-03-04T05:33:30.386Z,2.28
2023-03-04T05:35:57.625Z,2.08
2023-03-04T05:38:27.208Z,2.33
2023-03-04T05:41:01.141Z,3.50
2023-03-04T05:43:28.825Z,2.17
2023-03-04T05:45:56.236Z,3.20
2023-03-04T05:48:23.894Z,2.63
2023-03-04T05:50:54.599Z,2.75
2023-03-04T05:53:21.762Z,2.15
2023-03-04T05:55:49.218Z,2.22
2023-03-04T05:58:16.935Z,2.22
2023-03-04T06:00:46.636Z,2.33
2023-03-04T06:03:18.210Z,3.00
2023-03-04T06:05:45.409Z,2.60
2023-03-04T06:08:13.146Z,2.83
2023-03-04T06:10:41.098Z,1.65
2023-03-04T06:13:08.490Z,2.47
2023-03-04T06:15:35.931Z,2.53
2023-03-04T06:18:03.164Z,2.30
2023-03-04T06:20:30.713Z,2.45
2023-03-04T06:22:57.933Z,2.03
2023-03-04T06:25:25.308Z,2.35
2023-03-04T06:27:54.782Z,2.17
2023-03-04T06:30:27.720Z,2.80
2023-03-04T06:32:55.377Z,2.40
2023-03-04T06:35:25.604Z,2.22
2023-03-04T06:37:52.897Z,1.92
2023-03-04T06:40:20.067Z,2.65
2023-03-04T06:42:47.169Z,2.22
2023-03-04T06:45:14.333Z,2.55
2023-03-04T06:47:41.731Z,2.67
2023-03-04T06:50:09.398Z,2.65
2023-03-04T06:52:36.500Z,2.22
2023-03-04T06:55:03.796Z,2.45
2023-03-04T06:57:31.008Z,2.55
2023-03-04T07:00:01.574Z,2.03
2023-03-04T07:02:28.751Z,2.28
2023-03-04T07:04:55.978Z,2.33
2023-03-04T07:07:23.483Z,2.30
2023-03-04T07:09:50.633Z,2.35
2023-03-04T07:12:17.764Z,2.63
2023-03-04T07:14:57.025Z,2.38
2023-03-04T07:17:24.742Z,2.40
2023-03-04T07:19:52.069Z,2.47
2023-03-04T07:22:19.342Z,2.38
2023-03-04T07:24:58.759Z,2.10
2023-03-04T07:27:26.109Z,2.53
2023-03-04T07:29:53.221Z,2.25
2023-03-04T07:32:20.401Z,1.98
2023-03-04T07:34:49.522Z,2.45
2023-03-04T07:37:16.636Z,2.33
2023-03-04T07:39:43.792Z,1.90
2023-03-04T07:42:10.956Z,2.63
2023-03-04T07:44:41.476Z,2.33
2023-03-04T07:47:08.649Z,2.47
2023-03-04T07:49:35.775Z,2.05
2023-03-04T07:52:06.497Z,2.20
2023-03-04T07:54:33.734Z,2.55
2023-03-04T07:57:03.826Z,2.08
2023-03-04T07:59:31.467Z,1.83
2023-03-04T08:01:58.568Z,2.33
2023-03-04T08:04:25.788Z,1.83
2023-03-04T08:06:53.054Z,1.90
2023-03-04T08:09:21.263Z,2.20
2023-03-04T08:11:48.384Z,1.88
2023-03-04T08:14:15.580Z,2.22
2023-03-04T08:16:43.101Z,2.20
2023-03-04T08:19:12.453Z,1.70
2023-03-04T08:21:39.720Z,2.10
2023-03-04T08:24:08.962Z,1.60
2023-03-04T08:26:40.777Z,2.20
2023-03-04T08:29:09.376Z,1.98
2023-03-04T08:31:36.900Z,2.10
2023-03-04T08:34:04.631Z,1.67
2023-03-04T08:36:31.968Z,1.73
2023-03-04T08:39:00.420Z,1.35
2023-03-04T08:41:27.809Z,1.73
2023-03-04T08:43:55.196Z,1.73
2023-03-04T08:46:22.365Z,1.75
2023-03-04T08:48:49.544Z,1.75
2023-03-04T08:51:17.106Z,1.92
2023-03-04T08:53:45.653Z,1.52
2023-03-04T08:56:13.667Z,1.88
2023-03-04T08:58:41.080Z,1.42
2023-03-04T09:01:09.518Z,1.60
2023-03-04T09:03:37.082Z,1.73
2023-03-04T09:06:05.090Z,1.90
2023-03-04T09:08:32.459Z,1.90
2023-03-04T09:11:00.573Z,2.20
2023-03-04T09:13:29.529Z,1.77
2023-03-04T09:15:56.999Z,1.80
2023-03-04T09:18:24.713Z,2.15
2023-03-04T09:20:55.409Z,2.20
2023-03-04T09:23:26.482Z,1.60
2023-03-04T09:25:54.039Z,2.13
2023-03-04T09:28:21.452Z,1.60
2023-03-04T09:30:48.915Z,1.98
2023-03-04T09:33:16.423Z,2.10
2023-03-04T09:35:44.033Z,2.00
2023-03-04T09:38:11.304Z,1.90
2023-03-04T09:40:43.380Z,2.33
2023-03-04T09:43:30.092Z,2.05
2023-03-04T09:45:58.808Z,2.42
2023-03-04T09:48:28.927Z,1.98
2023-03-04T09:51:10.476Z,2.38
2023-03-04T09:53:58.057Z,3.60
2023-03-04T09:56:26.257Z,3.40
2023-03-04T09:59:16.639Z,3.25
2023-03-04T10:01:48.608Z,3.40
2023-03-04T10:04:21.425Z,2.97
2023-03-04T10:06:54.349Z,3.30
2023-03-04T10:09:25.719Z,3.58
2023-03-04T10:12:07.024Z,4.07
2023-03-04T10:14:43.023Z,3.92
2023-03-04T10:17:33.504Z,3.05
2023-03-04T10:20:12.973Z,2.42
2023-03-04T10:22:45.173Z,2.83
2023-03-04T10:25:24.292Z,3.45
2023-03-04T10:27:52.973Z,3.50
2023-03-04T10:30:31.917Z,2.38
2023-03-04T10:33:22.078Z,2.80
2023-03-04T10:35:51.975Z,2.67
2023-03-04T10:38:22.474Z,3.10
2023-03-04T10:41:01.201Z,3.90
2023-03-04T10:43:41.581Z,3.10
2023-03-04T10:46:22.691Z,3.20
2023-03-04T10:48:51.433Z,2.35
2023-03-04T10:51:21.448Z,3.75
2023-03-04T10:53:52.103Z,1.70
2023-03-04T10:56:41.075Z,2.25
2023-03-04T10:59:27.420Z,2.10
2023-03-04T11:01:54.863Z,2.00
2023-03-04T11:04:25.563Z,2.50
2023-03-04T11:06:53.447Z,2.22
2023-03-04T11:09:28.419Z,2.15
2023-03-04T11:11:56.356Z,2.05
2023-03-04T11:14:28.475Z,1.88
2023-03-04T11:17:02.562Z,2.60
2023-03-04T11:19:38.302Z,2.45
2023-03-04T11:22:06.249Z,2.20
2023-03-04T11:24:35.667Z,2.88
2023-03-04T11:27:12.363Z,2.20
2023-03-04T11:29:44.461Z,1.80
2023-03-04T11:32:15.343Z,1.60
2023-03-04T11:34:57.607Z,1.63
2023-03-04T11:37:35.574Z,2.40
2023-03-04T11:40:11.595Z,2.58
2023-03-04T11:42:41.472Z,2.30
2023-03-04T11:45:28.447Z,2.03
2023-03-04T11:47:59.730Z,1.80
2023-03-04T11:50:32.850Z,1.95
2023-03-04T11:53:18.619Z,2.60
2023-03-04T11:56:01.314Z,2.50
2023-03-04T11:58:47.430Z,2.75
2023-03-04T12:01:25.785Z,2.75
2023-03-04T12:04:12.115Z,3.00
2023-03-04T12:06:42.050Z,2.35
2023-03-04T12:09:12.259Z,2.00
2023-03-04T12:11:57.941Z,2.35
2023-03-04T12:14:28.720Z,2.08
2023-03-04T12:17:21.450Z,2.42
2023-03-04T12:20:00.876Z,3.13
2023-03-04T12:22:35.614Z,3.55
2023-03-04T12:25:18.108Z,2.75
2023-03-04T12:28:05.254Z,2.95
2023-03-04T12:30:40.018Z,2.78
2023-03-04T12:33:13.287Z,3.30
2023-03-04T12:36:04.546Z,3.40
2023-03-04T12:38:50.111Z,2.72
2023-03-04T12:41:42.859Z,3.53
2023-03-04T12:44:17.214Z,3.30
2023-03-04T12:47:06.894Z,2.55
2023-03-04T12:49:41.176Z,4.35
2023-03-04T12:52:23.826Z,2.70
2023-03-04T12:54:55.401Z,3.25
2023-03-04T12:57:26.569Z,3.10
2023-03-04T13:00:12.848Z,2.33
2023-03-04T13:02:48.582Z,2.25
2023-03-04T13:05:25.164Z,2.80
2023-03-04T13:08:11.347Z,2.35
2023-03-04T13:10:38.499Z,2.75
2023-03-04T13:13:05.875Z,2.70
2023-03-04T13:15:38.230Z,3.00
2023-03-04T13:18:05.382Z,2.65
2023-03-04T13:20:40.316Z,2.00
2023-03-04T13:23:10.441Z,2.38
2023-03-04T13:25:37.762Z,2.28
2023-03-04T13:28:13.768Z,3.33
2023-03-04T13:30:43.198Z,2.42
2023-03-04T13:33:16.449Z,2.97
2023-03-04T13:35:47.020Z,2.50
2023-03-04T13:38:25.393Z,2.67
2023-03-04T13:41:11.135Z,2.08
2023-03-04T13:43:41.201Z,2.47
2023-03-04T13:46:20.397Z,2.50
2023-03-04T13:48:50.518Z,2.33
2023-03-04T13:51:29.212Z,2.20
2023-03-04T13:54:00.092Z,2.30
2023-03-04T13:56:28.733Z,2.30
2023-03-04T13:59:04.981Z,1.80
2023-03-04T14:01:33.822Z,2.60
2023-03-04T14:04:02.229Z,2.55
2023-03-04T14:06:30.823Z,2.60
2023-03-04T14:08:58.509Z,2.40
2023-03-04T14:11:28.374Z,2.10
2023-03-04T14:13:56.573Z,2.50
2023-03-04T14:16:27.123Z,2.78
2023-03-04T14:19:02.871Z,2.47
2023-03-04T14:21:33.166Z,2.85
2023-03-04T14:24:05.810Z,2.72
2023-03-04T14:29:02.601Z,2.05
2023-03-04T14:31:30.588Z,3.13
2023-03-04T14:34:07.386Z,2.08
2023-03-04T14:36:36.142Z,2.40
2023-03-04T14:39:04.986Z,2.40
2023-03-04T14:41:37.828Z,2.78
2023-03-04T14:46:37.569Z,2.10
2023-03-04T14:51:42.927Z,1.90
2023-03-04T14:54:29.486Z,1.40
2023-03-04T14:56:57.197Z,2.22
2023-03-04T14:59:30.956Z,2.00
2023-03-04T15:02:18.971Z,1.88
2023-03-04T15:04:47.374Z,2.08
2023-03-04T15:07:19.941Z,1.90
2023-03-04T15:09:51.522Z,2.13
2023-03-04T15:12:24.952Z,2.73
2023-03-04T15:14:58.832Z,1.92
2023-03-04T15:17:39.117Z,1.92
2023-03-04T15:20:06.312Z,2.35
2023-03-04T15:22:34.302Z,2.15
2023-03-04T15:25:01.544Z,2.08
2023-03-04T15:27:30.053Z,2.20
2023-03-04T15:29:59.255Z,1.90
2023-03-04T15:32:30.177Z,2.03
2023-03-04T15:34:57.606Z,2.28
2023-03-04T15:37:29.108Z,3.10
2023-03-04T15:39:57.102Z,2.25
2023-03-04T15:42:24.538Z,2.05
2023-03-04T15:44:51.738Z,1.88
2023-03-04T15:47:18.876Z,2.10
2023-03-04T15:49:48.989Z,2.80
2023-03-04T15:52:17.264Z,2.35
2023-03-04T15:54:44.463Z,2.42
2023-03-04T15:57:40.844Z,2.13
2023-03-04T16:00:08.712Z,2.67
2023-03-04T16:02:39.630Z,2.50
2023-03-04T16:05:07.802Z,2.42
2023-03-04T16:07:35.731Z,2.38
2023-03-04T16:10:08.251Z,2.78
2023-03-04T16:12:35.554Z,2.88
2023-03-04T16:15:04.076Z,2.58
2023-03-04T16:17:32.839Z,2.85
2023-03-04T16:20:00.230Z,2.83
2023-03-04T16:22:29.147Z,2.67
2023-03-04T16:24:56.384Z,2.97
2023-03-04T16:27:26.395Z,2.78
2023-03-04T16:29:53.503Z,2.67
2023-03-04T16:32:20.703Z,2.30
2023-03-04T16:34:48.052Z,2.20
2023-03-04T16:37:19.781Z,4.43
2023-03-04T16:39:49.064Z,3.40
2023-03-04T16:42:18.980Z,2.10
2023-03-04T16:44:46.696Z,2.30
2023-03-04T16:47:13.829Z,2.25
2023-03-04T16:49:41.329Z,2.50
2023-03-04T16:52:10.498Z,2.63
2023-03-04T16:54:40.634Z,2.40
2023-03-04T16:57:08.965Z,2.97
2023-03-04T16:59:36.324Z,2.47
2023-03-04T17:02:03.503Z,2.53
2023-03-04T17:04:30.987Z,2.55
2023-03-04T17:06:58.209Z,3.00
2023-03-04T17:09:25.734Z,2.65
2023-03-04T17:11:53.193Z,2.40
2023-03-04T17:14:20.344Z,2.35
2023-03-04T17:16:47.404Z,2.50
2023-03-04T17:19:14.573Z,1.60
2023-03-04T17:21:41.657Z,2.33
2023-03-04T17:24:11.367Z,3.72
2023-03-04T17:26:39.760Z,2.13
2023-03-04T17:29:06.861Z,2.78
2023-03-04T17:31:34.124Z,3.20
2023-03-04T17:34:01.281Z,2.05
2023-03-04T17:36:28.442Z,2.78
2023-03-04T17:38:55.577Z,2.42
2023-03-04T17:41:24.728Z,2.25
2023-03-04T17:43:54.426Z,2.90
2023-03-04T17:46:22.698Z,2.15
2023-03-04T17:48:50.267Z,2.42
2023-03-04T17:51:17.427Z,2.17
2023-03-04T17:53:44.611Z,2.17
2023-03-04T17:56:12.338Z,2.30
2023-03-04T17:58:39.892Z,3.28
2023-03-04T18:01:12.148Z,3.45
2023-03-04T18:03:39.364Z,3.15
2023-03-04T18:06:06.812Z,3.60
2023-03-04T18:08:34.009Z,7.30
2023-03-04T18:11:01.243Z,3.17
2023-03-04T18:13:28.455Z,8.68
2023-03-04T18:15:56.115Z,29.40
2023-03-04T18:18:23.436Z,23.65
2023-03-04T18:20:50.569Z,12.45
2023-03-04T18:23:17.715Z,9.40
2023-03-04T18:25:44.834Z,5.32
2023-03-04T18:28:12.002Z,7.20
2023-03-04T18:30:39.352Z,5.47
2023-03-04T18:33:06.661Z,6.18
2023-03-04T18:35:34.286Z,6.75
2023-03-04T18:38:01.687Z,4.30
2023-03-04T18:40:29.579Z,4.25
2023-03-04T18:42:59.859Z,6.95
2023-03-04T18:45:27.644Z,4.43
2023-03-04T18:47:55.355Z,4.75
2023-03-04T18:50:22.551Z,4.57
2023-03-04T18:52:52.669Z,3.88
2023-03-04T18:55:20.717Z,3.22
2023-03-04T18:57:50.771Z,3.28
2023-03-04T19:00:19.615Z,3.67
2023-03-04T19:02:55.126Z,2.47
2023-03-04T19:05:27.636Z,3.35
2023-03-04T19:10:22.056Z,3.25
2023-03-04T19:12:49.372Z,3.97
2023-03-04T19:15:16.714Z,5.38
2023-03-04T19:17:45.932Z,5.95
2023-03-04T19:20:14.443Z,2.90
2023-03-04T19:22:41.624Z,3.42
2023-03-04T19:25:09.432Z,3.03
2023-03-04T19:27:36.974Z,2.65
2023-03-04T19:30:04.749Z,2.20
2023-03-04T19:32:31.982Z,2.78
2023-03-04T19:34:59.191Z,2.58
2023-03-04T19:37:26.312Z,2.63
2023-03-04T19:39:55.784Z,2.63
2023-03-04T19:42:23.775Z,2.92
2023-03-04T19:44:50.967Z,2.63
2023-03-04T19:47:18.214Z,2.30
2023-03-04T19:49:45.372Z,2.50
2023-03-04T19:52:12.441Z,2.75
2023-03-04T19:54:39.790Z,3.15
2023-03-04T19:57:07.135Z,2.58
2023-03-04T19:59:35.309Z,3.17
2023-03-04T20:02:02.858Z,3.65
2023-03-04T20:04:29.994Z,3.83
2023-03-04T20:06:57.206Z,3.08
2023-03-04T20:09:24.288Z,3.53
2023-03-04T20:11:58.262Z,2.83
2023-03-04T20:14:26.582Z,3.75
2023-03-04T20:16:53.695Z,3.40
2023-03-04T20:19:20.846Z,3.15
2023-03-04T20:21:47.976Z,9.65
2023-03-04T20:24:15.142Z,6.95
2023-03-04T20:26:42.591Z,4.97
2023-03-04T20:29:09.806Z,7.18
2023-03-04T20:31:38.872Z,2.92
2023-03-04T20:34:06.906Z,2.75
2023-03-04T20:36:35.164Z,3.42
2023-03-04T20:39:06.724Z,2.70
2023-03-04T20:41:40.021Z,3.63
2023-03-04T20:44:09.007Z,2.08
2023-03-04T20:46:45.177Z,2.63
2023-03-04T20:49:19.846Z,2.67
2023-03-04T20:52:00.581Z,2.17
2023-03-04T20:54:27.803Z,2.42
2023-03-04T20:56:55.168Z,2.80
2023-03-04T20:59:22.309Z,3.03
2023-03-04T21:01:49.689Z,2.45
2023-03-04T21:04:17.545Z,3.22
2023-03-04T21:06:45.474Z,2.95
2023-03-04T21:09:13.852Z,3.05
2023-03-04T21:11:41.289Z,2.70
2023-03-04T21:14:23.550Z,3.22
2023-03-04T21:16:53.369Z,2.92
2023-03-04T21:19:44.231Z,3.00
2023-03-04T21:22:29.609Z,1.95
2023-03-04T21:24:56.830Z,2.10
2023-03-04T21:27:38.632Z,2.10
2023-03-04T21:30:06.250Z,2.42
2023-03-04T21:32:33.774Z,2.63
2023-03-04T21:35:00.937Z,3.03
2023-03-04T21:37:28.281Z,2.83
2023-03-04T21:39:55.939Z,3.17
2023-03-04T21:42:23.333Z,3.17
2023-03-04T21:44:51.579Z,2.42
2023-03-04T21:47:19.948Z,2.05
2023-03-04T21:49:47.121Z,1.98
2023-03-04T21:52:14.576Z,2.92
2023-03-04T21:54:41.759Z,2.47
2023-03-04T21:57:08.913Z,2.80
2023-03-04T21:59:36.115Z,1.92
2023-03-04T22:02:03.369Z,2.60
2023-03-04T22:04:30.666Z,2.65
2023-03-04T22:06:57.733Z,2.42
2023-03-04T22:09:24.878Z,2.00
2023-03-04T22:11:52.178Z,2.85
2023-03-04T22:14:19.553Z,2.17
2023-03-04T22:16:59.095Z,2.30
2023-03-04T22:19:27.492Z,2.13
2023-03-04T22:21:54.721Z,1.77
2023-03-04T22:24:22.279Z,2.00
2023-03-04T22:26:49.505Z,2.80
2023-03-04T22:29:16.674Z,2.58
2023-03-04T22:31:45.199Z,2.03
2023-03-04T22:34:13.746Z,2.13
2023-03-04T22:36:42.969Z,2.08
2023-03-04T22:39:12.157Z,2.53
2023-03-04T22:41:39.308Z,2.33
2023-03-04T22:44:06.518Z,1.95
2023-03-04T22:46:34.510Z,2.80
2023-03-04T22:49:04.764Z,1.95
2023-03-04T22:51:32.314Z,1.95
2023-03-04T22:53:59.642Z,2.15
2023-03-04T22:56:27.198Z,2.58
2023-03-04T22:58:54.313Z,2.60
2023-03-04T23:01:21.500Z,1.83
2023-03-04T23:03:49.869Z,2.83
2023-03-04T23:06:21.211Z,2.00
2023-03-04T23:08:49.431Z,2.30
2023-03-04T23:11:18.382Z,2.13
2023-03-04T23:13:45.507Z,2.80
2023-03-04T23:16:13.381Z,1.80
2023-03-04T23:18:41.469Z,1.80
2023-03-04T23:21:10.214Z,2.00
2023-03-04T23:23:39.318Z,2.47
2023-03-04T23:26:06.720Z,2.30
2023-03-04T23:28:33.921Z,2.13
2023-03-04T23:31:01.078Z,2.15
2023-03-04T23:33:28.244Z,1.80
2023-03-04T23:35:56.543Z,2.25
2023-03-04T23:38:23.660Z,2.25
2023-03-04T23:40:50.824Z,2.35
2023-03-04T23:43:18.117Z,2.78
2023-03-04T23:45:45.261Z,1.88
2023-03-04T23:48:13.473Z,2.13
2023-03-04T23:50:40.649Z,2.20
2023-03-04T23:53:07.779Z,2.17
2023-03-04T23:55:34.912Z,2.13
2023-03-04T23:58:02.178Z,2.08
